Aérodrome :
LOGIN :

S'inscrire | Disclaimer

   EN    FR    IT 

 










Légende :    VFR   VFR Marginal   IFR   IFR Intensif   IFR Très Intensif
Visi : 
Plafond : 
>= 8 km
>= 3000ft
5 à 8 km
1000 à 3000 ft
1500m à 5 km
500 à 1000 ft
800 à 1500m
200 à 500 ft
< 800m
< 200 ft
Symboles :   Orages  Brouillard  Fortes neiges  Fortes précipitations  Vent > 20 kt
SIGMETs :   Divers  Orages  Givrage  Turbulence  Onde Orograph.  Cendres Volcan.







- Altitude de l'aérodrome : 125 ft
- Code IATA : MGL


EDLN - Mönchengladbach

DERNIER METAR :
  • 301020Z 18005KT 120V290 CAVOK 20/10 Q1025

METARs EXPIRÉS :
  • 300950Z VRB06KT CAVOK 19/10 Q1025
  • 300920Z 18005KT 120V230 CAVOK 18/10 Q1025
  • 300850Z 16005KT 100V220 CAVOK 16/10 Q1025
  • 300820Z 15005KT 100V190 CAVOK 15/10 Q1025
  • 300750Z 16005KT 120V200 CAVOK 14/09 Q1025

TAF TAF EDLN
Valide du 30 à 09h jusqu'au 30 à 18h UTC


300800Z 3009/3018 15005KT CAVOK
TEMPO 3009/3015 21007KT
Pas de NOTAMs connus pour ce terrain.



MET'MAP, la Météo Aéronautique d'un coup d'oeil ! - Copyright ORBIFLY Décembre 2007 - Disclaimer

ORBIFLY MET'MAP TEAM :

Programmation & Développement : Alexandra Zaïnal
Conception & Développement : Baudouin d'Aumeries
Co-Programmation & Développement : Marc-Olivier Méhu
Soutien technique & logistique : Manuel Goepfert

Contact : metmap@orbifly.com




SOURCES & CREDITS :

   NOAA